createdAt,value
2023-03-16T00:01:40.986Z,3.67
2023-03-16T00:04:07.233Z,3.43
2023-03-16T00:06:35.899Z,3.13
2023-03-16T00:09:02.385Z,3.00
2023-03-16T00:11:28.633Z,3.03
2023-03-16T00:13:54.972Z,3.00
2023-03-16T00:16:21.603Z,3.13
2023-03-16T00:18:47.735Z,3.40
2023-03-16T00:21:14.596Z,3.13
2023-03-16T00:23:41.818Z,3.60
2023-03-16T00:26:09.143Z,3.30
2023-03-16T00:28:35.703Z,2.60
2023-03-16T00:31:02.484Z,3.30
2023-03-16T00:33:28.861Z,3.10
2023-03-16T00:36:01.541Z,2.93
2023-03-16T00:38:28.566Z,3.30
2023-03-16T00:40:55.400Z,3.10
2023-03-16T00:43:21.599Z,3.20
2023-03-16T00:45:47.818Z,3.20
2023-03-16T00:48:14.121Z,3.20
2023-03-16T00:50:41.580Z,2.80
2023-03-16T00:53:07.789Z,3.00
2023-03-16T00:55:33.947Z,3.20
2023-03-16T00:58:04.208Z,3.10
2023-03-16T01:00:30.616Z,3.10
2023-03-16T01:02:56.829Z,3.30
2023-03-16T01:05:22.988Z,2.77
2023-03-16T01:07:49.240Z,3.20
2023-03-16T01:10:16.741Z,2.40
2023-03-16T01:12:44.525Z,3.30
2023-03-16T01:15:11.404Z,3.40
2023-03-16T01:17:37.644Z,3.00
2023-03-16T01:20:07.557Z,2.90
2023-03-16T01:22:34.011Z,3.20
2023-03-16T01:25:00.218Z,3.00
2023-03-16T01:27:26.382Z,3.03
2023-03-16T01:29:52.652Z,2.87
2023-03-16T01:32:19.476Z,3.00
2023-03-16T01:34:45.644Z,2.80
2023-03-16T01:37:11.919Z,2.90
2023-03-16T01:39:38.152Z,3.10
2023-03-16T01:42:04.715Z,2.90
2023-03-16T01:44:49.738Z,2.80
2023-03-16T01:47:15.910Z,2.37
2023-03-16T01:49:47.254Z,2.47
2023-03-16T01:52:16.835Z,2.80
2023-03-16T01:54:45.925Z,2.77
2023-03-16T01:57:15.435Z,2.67
2023-03-16T01:59:48.578Z,2.47
2023-03-16T02:02:18.552Z,2.37
2023-03-16T02:04:49.111Z,2.47
2023-03-16T02:07:17.794Z,2.80
2023-03-16T02:09:45.810Z,3.07
2023-03-16T02:12:17.127Z,2.60
2023-03-16T02:14:44.116Z,2.53
2023-03-16T02:17:10.270Z,2.60
2023-03-16T02:19:43.698Z,2.73
2023-03-16T02:22:10.801Z,2.70
2023-03-16T02:24:37.583Z,2.80
2023-03-16T02:27:06.003Z,2.47
2023-03-16T02:29:58.656Z,2.73
2023-03-16T02:32:26.688Z,2.87
2023-03-16T02:34:53.223Z,2.63
2023-03-16T02:37:21.087Z,2.60
2023-03-16T02:39:50.460Z,3.00
2023-03-16T02:42:20.999Z,2.83
2023-03-16T02:44:50.524Z,2.50
2023-03-16T02:47:23.789Z,2.80
2023-03-16T02:49:50.158Z,2.80
2023-03-16T02:52:16.326Z,2.40
2023-03-16T02:54:42.700Z,2.27
2023-03-16T02:57:09.308Z,2.40
2023-03-16T02:59:35.546Z,2.77
2023-03-16T03:02:01.852Z,2.50
2023-03-16T03:04:28.857Z,2.63
2023-03-16T03:06:55.161Z,2.23
2023-03-16T03:09:21.356Z,2.50
2023-03-16T03:11:47.505Z,2.50
2023-03-16T03:14:15.878Z,2.20
2023-03-16T03:16:45.641Z,2.40
2023-03-16T03:19:12.845Z,2.20
2023-03-16T03:21:40.084Z,2.57
2023-03-16T03:24:07.266Z,2.67
2023-03-16T03:26:33.519Z,2.30
2023-03-16T03:28:59.703Z,2.60
2023-03-16T03:31:25.901Z,2.30
2023-03-16T03:33:52.860Z,2.40
2023-03-16T03:36:19.117Z,2.40
2023-03-16T03:38:46.051Z,2.20
2023-03-16T03:41:12.407Z,2.40
2023-03-16T03:43:38.541Z,1.77
2023-03-16T03:46:05.306Z,2.20
2023-03-16T03:48:31.621Z,2.07
2023-03-16T03:50:57.953Z,2.30
2023-03-16T03:53:24.183Z,2.73
2023-03-16T03:55:51.087Z,2.47
2023-03-16T03:58:17.344Z,2.47
2023-03-16T04:00:44.074Z,2.40
2023-03-16T04:03:10.515Z,2.33
2023-03-16T04:05:36.801Z,2.60
2023-03-16T04:08:03.487Z,2.43
2023-03-16T04:10:30.666Z,2.30
2023-03-16T04:12:58.165Z,2.50
2023-03-16T04:15:24.451Z,2.50
2023-03-16T04:17:51.821Z,2.70
2023-03-16T04:20:19.295Z,2.57
2023-03-16T04:22:45.989Z,2.47
2023-03-16T04:25:14.407Z,2.23
2023-03-16T04:27:40.804Z,3.13
2023-03-16T04:30:11.700Z,2.30
2023-03-16T04:32:38.597Z,2.90
2023-03-16T04:35:05.871Z,2.17
2023-03-16T04:37:33.716Z,2.47
2023-03-16T04:39:59.934Z,2.73
2023-03-16T04:42:26.169Z,2.73
2023-03-16T04:44:52.362Z,3.00
2023-03-16T04:47:19.242Z,3.20
2023-03-16T04:49:45.652Z,3.13
2023-03-16T04:52:12.291Z,2.83
2023-03-16T04:54:38.520Z,2.67
2023-03-16T04:57:05.090Z,2.83
2023-03-16T04:59:31.444Z,3.00
2023-03-16T05:01:57.637Z,2.80
2023-03-16T05:04:24.693Z,3.40
2023-03-16T05:06:51.015Z,3.07
2023-03-16T05:09:17.136Z,3.13
2023-03-16T05:11:43.320Z,2.97
2023-03-16T05:14:10.071Z,2.70
2023-03-16T05:16:36.299Z,3.30
2023-03-16T05:19:02.487Z,3.60
2023-03-16T05:21:31.271Z,4.27
2023-03-16T05:23:57.612Z,3.00
2023-03-16T05:26:25.384Z,3.57
2023-03-16T05:28:52.309Z,3.43
2023-03-16T05:31:19.030Z,3.37
2023-03-16T05:33:45.586Z,3.40
2023-03-16T05:36:12.339Z,3.70
2023-03-16T05:38:39.384Z,3.60
2023-03-16T05:41:06.112Z,3.33
2023-03-16T05:43:33.693Z,3.60
2023-03-16T05:45:59.948Z,4.00
2023-03-16T05:48:26.142Z,4.10
2023-03-16T05:50:52.822Z,3.97
2023-03-16T05:53:19.394Z,3.90
2023-03-16T05:55:51.546Z,3.97
2023-03-16T05:58:17.759Z,3.87
2023-03-16T06:00:43.955Z,4.13
2023-03-16T06:03:10.404Z,3.90
2023-03-16T06:05:36.739Z,3.90
2023-03-16T06:08:03.030Z,4.60
2023-03-16T06:10:29.739Z,4.50
2023-03-16T06:12:58.488Z,4.00
2023-03-16T06:15:26.191Z,4.10
2023-03-16T06:17:52.616Z,4.77
2023-03-16T06:20:18.905Z,4.13
2023-03-16T06:22:45.170Z,3.83
2023-03-16T06:25:12.580Z,4.47
2023-03-16T06:27:39.378Z,4.30
2023-03-16T06:30:08.612Z,4.10
2023-03-16T06:32:35.389Z,4.10
2023-03-16T06:35:02.806Z,3.93
2023-03-16T06:37:29.518Z,4.33
2023-03-16T06:39:55.766Z,4.40
2023-03-16T06:42:23.048Z,4.30
2023-03-16T06:44:49.381Z,4.50
2023-03-16T06:47:16.192Z,4.63
2023-03-16T06:49:42.380Z,4.50
2023-03-16T06:52:09.729Z,4.03
2023-03-16T06:54:36.814Z,4.07
2023-03-16T06:57:03.324Z,4.10
2023-03-16T06:59:29.583Z,4.30
2023-03-16T07:01:55.794Z,4.23
2023-03-16T07:04:22.832Z,4.30
2023-03-16T07:06:49.203Z,4.30
2023-03-16T07:09:15.574Z,4.13
2023-03-16T07:11:41.752Z,4.10
2023-03-16T07:14:07.947Z,4.00
2023-03-16T07:16:34.244Z,4.43
2023-03-16T07:19:00.936Z,4.83
2023-03-16T07:21:27.776Z,4.20
2023-03-16T07:23:55.045Z,4.20
2023-03-16T07:26:21.262Z,3.93
2023-03-16T07:28:47.493Z,4.13
2023-03-16T07:31:14.312Z,4.40
2023-03-16T07:33:40.479Z,4.90
2023-03-16T07:36:09.817Z,4.10
2023-03-16T07:38:36.657Z,4.27
2023-03-16T07:41:03.204Z,4.07
2023-03-16T07:43:29.435Z,4.50
2023-03-16T07:45:55.895Z,4.20
2023-03-16T07:48:22.182Z,4.80
2023-03-16T07:50:48.677Z,4.53
2023-03-16T07:53:15.188Z,4.23
2023-03-16T07:55:42.068Z,5.03
2023-03-16T07:58:09.589Z,4.00
2023-03-16T08:00:35.997Z,3.87
2023-03-16T08:03:02.488Z,4.77
2023-03-16T08:05:28.978Z,4.40
2023-03-16T08:07:56.467Z,4.40
2023-03-16T08:10:23.273Z,4.80
2023-03-16T08:12:51.155Z,4.50
2023-03-16T08:15:17.559Z,4.43
2023-03-16T08:17:43.919Z,4.73
2023-03-16T08:20:13.761Z,4.87
2023-03-16T08:22:40.042Z,4.43
2023-03-16T08:25:09.580Z,4.23
2023-03-16T08:27:37.059Z,4.17
2023-03-16T08:30:05.360Z,4.67
2023-03-16T08:32:32.067Z,5.07
2023-03-16T08:34:59.687Z,4.30
2023-03-16T08:37:26.594Z,4.30
2023-03-16T08:39:53.442Z,5.10
2023-03-16T08:42:20.242Z,4.50
2023-03-16T08:44:47.230Z,4.47
2023-03-16T08:47:14.231Z,4.60
2023-03-16T08:49:40.626Z,4.47
2023-03-16T08:52:09.498Z,4.70
2023-03-16T08:54:35.828Z,4.70
2023-03-16T08:57:02.175Z,4.70
2023-03-16T08:59:30.501Z,5.00
2023-03-16T09:01:56.986Z,4.90
2023-03-16T09:04:24.197Z,4.47
2023-03-16T09:07:02.363Z,4.53
2023-03-16T09:09:34.806Z,4.77
2023-03-16T09:12:01.062Z,4.80
2023-03-16T09:14:27.756Z,4.87
2023-03-16T09:16:54.015Z,4.63
2023-03-16T09:19:34.870Z,4.70
2023-03-16T09:22:07.026Z,4.83
2023-03-16T09:24:33.145Z,4.40
2023-03-16T09:26:59.323Z,4.50
2023-03-16T09:29:25.460Z,4.47
2023-03-16T09:31:51.765Z,4.43
2023-03-16T09:34:18.212Z,4.53
2023-03-16T09:36:45.034Z,4.60
2023-03-16T09:39:12.503Z,4.63
2023-03-16T09:41:42.657Z,4.53
2023-03-16T09:44:27.369Z,4.23
2023-03-16T09:46:54.955Z,4.57
2023-03-16T09:49:25.149Z,4.90
2023-03-16T09:51:59.644Z,4.33
2023-03-16T09:54:31.984Z,4.50
2023-03-16T09:57:37.731Z,4.47
2023-03-16T10:00:28.876Z,4.30
2023-03-16T10:03:51.192Z,4.50
2023-03-16T10:06:17.364Z,3.80
2023-03-16T10:11:37.196Z,4.40
2023-03-16T10:14:10.387Z,4.33
2023-03-16T10:16:39.513Z,4.40
2023-03-16T10:19:11.465Z,4.30
2023-03-16T10:21:39.889Z,3.90
2023-03-16T10:24:13.147Z,3.90
2023-03-16T10:26:43.352Z,4.57
2023-03-16T10:29:12.020Z,4.03
2023-03-16T10:31:40.584Z,4.17
2023-03-16T10:34:07.659Z,4.20
2023-03-16T10:36:35.969Z,3.70
2023-03-16T10:39:04.222Z,4.23
2023-03-16T10:41:32.518Z,3.83
2023-03-16T10:44:05.478Z,3.97
2023-03-16T10:46:36.980Z,3.67
2023-03-16T10:49:03.251Z,4.20
2023-03-16T10:51:31.317Z,3.70
2023-03-16T10:54:04.704Z,3.20
2023-03-16T10:56:34.631Z,3.90
2023-03-16T10:59:01.635Z,3.50
2023-03-16T11:01:29.124Z,3.90
2023-03-16T11:03:56.744Z,3.60
2023-03-16T11:06:24.992Z,3.43
2023-03-16T11:08:52.947Z,3.03
2023-03-16T11:11:25.127Z,3.70
2023-03-16T11:13:55.438Z,3.30
2023-03-16T11:16:25.219Z,3.53
2023-03-16T11:18:55.011Z,3.30
2023-03-16T11:21:25.526Z,3.10
2023-03-16T11:23:55.350Z,2.50
2023-03-16T11:26:26.947Z,3.10
2023-03-16T11:29:00.988Z,2.90
2023-03-16T11:31:38.641Z,3.07
2023-03-16T11:34:12.690Z,2.87
2023-03-16T11:36:45.361Z,2.80
2023-03-16T11:39:21.499Z,2.67
2023-03-16T11:41:56.571Z,2.60
2023-03-16T11:44:29.180Z,2.93
2023-03-16T11:47:01.443Z,3.27
2023-03-16T11:49:41.484Z,3.10
2023-03-16T11:52:14.613Z,2.60
2023-03-16T11:54:50.141Z,2.80
2023-03-16T11:57:29.980Z,2.77
2023-03-16T12:00:11.107Z,2.63
2023-03-16T12:02:45.649Z,2.97
2023-03-16T12:05:33.876Z,2.50
2023-03-16T12:08:10.181Z,2.90
2023-03-16T12:10:37.953Z,2.53
2023-03-16T12:13:32.308Z,2.50
2023-03-16T12:16:01.239Z,2.70
2023-03-16T12:18:35.172Z,2.40
2023-03-16T12:21:03.548Z,2.40
2023-03-16T12:23:33.773Z,2.67
2023-03-16T12:26:00.470Z,2.63
2023-03-16T12:28:28.298Z,2.97
2023-03-16T12:31:01.041Z,2.60
2023-03-16T12:33:37.333Z,2.57
2023-03-16T12:36:28.464Z,2.57
2023-03-16T12:38:57.517Z,2.40
2023-03-16T12:41:30.606Z,2.40
2023-03-16T12:44:11.929Z,2.90
2023-03-16T12:46:46.436Z,2.60
2023-03-16T12:49:13.868Z,2.30
2023-03-16T12:51:42.334Z,2.50
2023-03-16T12:54:19.434Z,2.10
2023-03-16T12:56:47.312Z,2.63
2023-03-16T12:59:17.082Z,2.40
2023-03-16T13:01:45.391Z,2.00
2023-03-16T13:04:13.843Z,1.90
2023-03-16T13:06:43.377Z,2.30
2023-03-16T13:09:11.366Z,2.20
2023-03-16T13:11:43.145Z,2.03
2023-03-16T13:14:12.917Z,2.17
2023-03-16T13:16:39.566Z,2.00
2023-03-16T13:19:36.982Z,2.27
2023-03-16T13:22:20.150Z,2.00
2023-03-16T13:24:51.905Z,1.90
2023-03-16T13:27:22.498Z,1.63
2023-03-16T13:29:54.175Z,1.80
2023-03-16T13:32:21.474Z,1.77
2023-03-16T13:34:50.159Z,1.90
2023-03-16T13:37:19.140Z,2.00
2023-03-16T13:39:53.125Z,1.30
2023-03-16T13:42:21.672Z,1.70
2023-03-16T13:44:47.895Z,1.70
2023-03-16T13:47:15.294Z,1.90
2023-03-16T13:49:44.825Z,1.57
2023-03-16T13:52:15.065Z,1.50
2023-03-16T13:54:41.412Z,1.60
2023-03-16T13:57:11.204Z,1.80
2023-03-16T13:59:37.678Z,1.60
2023-03-16T14:02:17.120Z,1.37
2023-03-16T14:04:43.549Z,1.73
2023-03-16T14:07:16.386Z,1.53
2023-03-16T14:09:42.950Z,1.60
2023-03-16T14:12:14.237Z,1.77
2023-03-16T14:14:41.544Z,1.60
2023-03-16T14:17:11.835Z,1.70
2023-03-16T14:19:43.588Z,1.80
2023-03-16T14:22:14.197Z,1.60
2023-03-16T14:24:40.853Z,1.60
2023-03-16T14:27:17.989Z,1.60
2023-03-16T14:29:45.042Z,1.80
2023-03-16T14:32:22.027Z,1.80
2023-03-16T14:34:49.603Z,1.70
2023-03-16T14:37:18.535Z,1.70
2023-03-16T14:39:45.751Z,1.60
2023-03-16T14:42:18.890Z,1.40
2023-03-16T14:44:45.363Z,1.70
2023-03-16T14:47:18.696Z,1.50
2023-03-16T14:49:44.852Z,1.80
2023-03-16T14:52:25.534Z,1.60
2023-03-16T14:54:53.211Z,1.90
2023-03-16T14:57:19.962Z,1.50
2023-03-16T14:59:46.126Z,1.80
2023-03-16T15:02:16.670Z,1.57
2023-03-16T15:04:43.179Z,1.63
2023-03-16T15:07:24.307Z,1.83
2023-03-16T15:09:53.124Z,2.10
2023-03-16T15:12:20.731Z,1.97
2023-03-16T15:15:05.930Z,1.97
2023-03-16T15:17:32.553Z,1.73
2023-03-16T15:19:59.060Z,1.90
2023-03-16T15:22:27.923Z,2.00
2023-03-16T15:24:54.849Z,1.80
2023-03-16T15:27:23.756Z,2.10
2023-03-16T15:29:50.015Z,2.10
2023-03-16T15:32:16.449Z,2.00
2023-03-16T15:34:45.644Z,2.00
2023-03-16T15:37:13.580Z,1.60
2023-03-16T15:39:39.929Z,1.60
2023-03-16T15:42:13.182Z,1.80
2023-03-16T15:44:39.501Z,1.80
2023-03-16T15:47:05.984Z,1.70
2023-03-16T15:49:37.798Z,1.90
2023-03-16T15:52:22.101Z,1.67
2023-03-16T15:54:48.366Z,2.03
2023-03-16T15:57:15.210Z,1.70
2023-03-16T15:59:41.408Z,1.90
2023-03-16T16:02:24.264Z,1.57
2023-03-16T16:04:50.407Z,1.80
2023-03-16T16:07:16.644Z,1.90
2023-03-16T16:09:42.788Z,1.80
2023-03-16T16:12:11.124Z,1.80
2023-03-16T16:14:38.021Z,1.93
2023-03-16T16:17:05.216Z,2.00
2023-03-16T16:19:33.469Z,2.13
2023-03-16T16:21:59.663Z,2.30
2023-03-16T16:24:25.854Z,2.23
2023-03-16T16:26:55.282Z,2.13
2023-03-16T16:29:23.360Z,2.30
2023-03-16T16:31:51.034Z,2.30
2023-03-16T16:34:20.333Z,2.00
2023-03-16T16:36:46.828Z,2.20
2023-03-16T16:39:13.405Z,1.87
2023-03-16T16:41:39.874Z,2.17
2023-03-16T16:44:14.557Z,2.40
2023-03-16T16:46:41.703Z,2.27
2023-03-16T16:49:13.699Z,2.00
2023-03-16T16:51:39.891Z,2.37
2023-03-16T16:54:14.313Z,2.33
2023-03-16T16:56:41.539Z,2.00
2023-03-16T16:59:13.554Z,2.00
2023-03-16T17:01:40.030Z,2.83
2023-03-16T17:04:13.920Z,2.37
2023-03-16T17:06:40.425Z,2.50
2023-03-16T17:09:08.004Z,2.67
2023-03-16T17:11:35.795Z,2.40
2023-03-16T17:14:03.392Z,2.20
2023-03-16T17:16:31.389Z,2.30
2023-03-16T17:18:58.030Z,2.70
2023-03-16T17:21:29.024Z,2.60
2023-03-16T17:23:56.152Z,2.33
2023-03-16T17:26:23.972Z,2.80
2023-03-16T17:28:52.430Z,2.20
2023-03-16T17:31:21.498Z,2.93
2023-03-16T17:33:47.738Z,2.30
2023-03-16T17:36:15.271Z,2.60
2023-03-16T17:38:42.296Z,2.70
2023-03-16T17:41:19.945Z,2.80
2023-03-16T17:43:47.239Z,2.23
2023-03-16T17:46:17.161Z,2.87
2023-03-16T17:48:44.780Z,3.07
2023-03-16T17:51:12.692Z,3.20
2023-03-16T17:53:38.984Z,3.30
2023-03-16T17:56:18.156Z,2.60
2023-03-16T17:58:45.548Z,2.50
2023-03-16T18:01:12.437Z,3.00
2023-03-16T18:03:38.652Z,2.90
2023-03-16T18:06:05.487Z,2.17
2023-03-16T18:08:33.428Z,2.83
2023-03-16T18:11:00.746Z,2.80
2023-03-16T18:13:29.970Z,2.77
2023-03-16T18:15:56.734Z,3.30
2023-03-16T18:18:24.353Z,2.40
2023-03-16T18:20:51.346Z,2.70
2023-03-16T18:23:20.203Z,2.30
2023-03-16T18:25:47.883Z,2.00
2023-03-16T18:28:15.279Z,2.23
2023-03-16T18:30:44.585Z,2.40
2023-03-16T18:33:23.319Z,2.53
2023-03-16T18:35:49.866Z,2.33
2023-03-16T18:38:23.330Z,2.57
2023-03-16T18:40:49.715Z,2.50
2023-03-16T18:43:16.445Z,2.50
2023-03-16T18:45:44.294Z,2.60
2023-03-16T18:48:18.790Z,2.43
2023-03-16T18:50:45.975Z,2.40
2023-03-16T18:53:15.125Z,2.40
2023-03-16T18:55:44.128Z,2.30
2023-03-16T18:58:15.853Z,2.40
2023-03-16T19:00:44.161Z,2.33
2023-03-16T19:03:21.285Z,2.20
2023-03-16T19:05:47.811Z,2.27
2023-03-16T19:08:14.130Z,2.20
2023-03-16T19:10:44.787Z,2.37
2023-03-16T19:13:14.140Z,2.17
2023-03-16T19:15:40.702Z,2.30
2023-03-16T19:18:07.735Z,2.30
2023-03-16T19:20:34.727Z,2.30
2023-03-16T19:23:03.294Z,2.00
2023-03-16T19:25:32.735Z,2.30
2023-03-16T19:27:59.202Z,2.50
2023-03-16T19:30:27.225Z,2.80
2023-03-16T19:32:54.648Z,2.30
2023-03-16T19:35:28.765Z,2.20
2023-03-16T19:38:00.371Z,2.50
2023-03-16T19:40:27.666Z,2.53
2023-03-16T19:42:53.987Z,2.30
2023-03-16T19:45:25.238Z,2.60
2023-03-16T19:47:52.028Z,2.17
2023-03-16T19:50:20.308Z,2.40
2023-03-16T19:52:47.607Z,3.23
2023-03-16T19:55:16.265Z,2.80
2023-03-16T19:57:42.533Z,3.27
2023-03-16T20:00:17.054Z,2.93
2023-03-16T20:02:43.483Z,2.80
2023-03-16T20:05:15.961Z,2.57
2023-03-16T20:07:42.263Z,2.50
2023-03-16T20:10:16.257Z,2.70
2023-03-16T20:12:42.757Z,2.70
2023-03-16T20:15:10.057Z,2.77
2023-03-16T20:17:36.798Z,2.93
2023-03-16T20:20:09.484Z,2.90
2023-03-16T20:22:35.867Z,2.80
2023-03-16T20:25:04.447Z,2.80
2023-03-16T20:27:32.133Z,2.80
2023-03-16T20:29:58.438Z,2.70
2023-03-16T20:32:27.886Z,3.00
2023-03-16T20:34:54.285Z,3.13
2023-03-16T20:37:23.379Z,3.03
2023-03-16T20:39:50.371Z,3.20
2023-03-16T20:42:17.631Z,3.13
2023-03-16T20:44:45.884Z,3.20
2023-03-16T20:47:13.684Z,3.10
2023-03-16T20:49:39.969Z,2.90
2023-03-16T20:52:14.289Z,3.07
2023-03-16T20:54:41.141Z,3.30
2023-03-16T20:57:14.962Z,2.83
2023-03-16T20:59:42.764Z,2.87
2023-03-16T21:02:26.325Z,2.60
2023-03-16T21:04:53.966Z,3.50
2023-03-16T21:07:20.476Z,3.47
2023-03-16T21:09:50.329Z,2.80
2023-03-16T21:12:22.554Z,2.90
2023-03-16T21:14:48.808Z,3.27
2023-03-16T21:17:21.114Z,3.20
2023-03-16T21:19:47.695Z,2.73
2023-03-16T21:22:20.786Z,2.97
2023-03-16T21:24:47.003Z,3.27
2023-03-16T21:27:15.143Z,3.20
2023-03-16T21:29:41.638Z,2.80
2023-03-16T21:32:10.520Z,2.80
2023-03-16T21:34:37.397Z,2.70
2023-03-16T21:37:12.346Z,3.13
2023-03-16T21:39:38.651Z,2.80
2023-03-16T21:42:05.773Z,2.87
2023-03-16T21:44:32.220Z,3.03
2023-03-16T21:46:58.535Z,2.47
2023-03-16T21:49:24.886Z,2.63
2023-03-16T21:51:52.054Z,2.87
2023-03-16T21:54:18.794Z,2.40
2023-03-16T21:56:46.142Z,2.47
2023-03-16T21:59:12.562Z,2.60
2023-03-16T22:01:54.242Z,2.30
2023-03-16T22:04:25.880Z,2.83
2023-03-16T22:06:52.808Z,2.67
2023-03-16T22:09:20.318Z,2.57
2023-03-16T22:11:46.530Z,2.40
2023-03-16T22:14:12.826Z,2.50
2023-03-16T22:16:39.825Z,2.50
2023-03-16T22:19:10.099Z,2.60
2023-03-16T22:21:38.824Z,2.20
2023-03-16T22:24:11.858Z,2.37
2023-03-16T22:26:38.131Z,2.83
2023-03-16T22:29:18.982Z,2.20
2023-03-16T22:31:46.385Z,2.37
2023-03-16T22:34:23.413Z,2.10
2023-03-16T22:36:49.548Z,1.90
2023-03-16T22:39:16.999Z,2.40
2023-03-16T22:41:43.216Z,2.10
2023-03-16T22:44:15.006Z,2.43
2023-03-16T22:46:41.176Z,2.17
2023-03-16T22:49:17.512Z,2.00
2023-03-16T22:51:43.701Z,2.37
2023-03-16T22:54:14.204Z,2.07
2023-03-16T22:56:41.669Z,2.33
2023-03-16T22:59:11.890Z,2.23
2023-03-16T23:01:39.755Z,2.20
2023-03-16T23:04:12.797Z,2.07
2023-03-16T23:06:39.120Z,2.00
2023-03-16T23:09:05.369Z,1.97
2023-03-16T23:11:33.211Z,2.07
2023-03-16T23:14:00.606Z,1.83
2023-03-16T23:16:29.078Z,2.20
2023-03-16T23:18:55.959Z,2.40
2023-03-16T23:21:23.736Z,1.80
2023-03-16T23:24:02.746Z,2.10
2023-03-16T23:26:29.594Z,1.80
2023-03-16T23:28:56.295Z,2.20
2023-03-16T23:31:25.087Z,2.40
2023-03-16T23:33:51.211Z,2.47
2023-03-16T23:36:18.457Z,2.10
2023-03-16T23:38:45.515Z,2.33
2023-03-16T23:41:13.662Z,1.90
2023-03-16T23:43:40.913Z,2.10
2023-03-16T23:46:09.028Z,2.27
2023-03-16T23:48:36.208Z,1.93
2023-03-16T23:51:02.989Z,2.40
2023-03-16T23:53:29.617Z,2.30
2023-03-16T23:55:56.006Z,2.10
2023-03-16T23:58:22.270Z,2.10
